Time;durP1;ratioP1;P1;durP2;ratioP2;P2;SDS_P1;SDS_P2;PMS_P1;PMS_P2;Temp;Humidity;BMP_temperature;BMP_pressure;BME280_temperature;BME280_humidity;BME280_pressure;Samples;Min_cycle;Max_cycle;Signal;HPM_P1;HPM_P2
2023/06/12 00:01:25;;;;;;;2.35;2.10;;;16.40;57.00;16.40;100932.00;;;;4963569;28;120424;-68
2023/06/12 00:03:51;;;;;;;2.97;2.17;;;16.40;57.00;16.40;100923.00;;;;4967372;28;123594;-69
2023/06/12 00:06:17;;;;;;;5.35;2.40;;;16.30;57.20;16.30;100930.00;;;;4949733;28;108005;-68
2023/06/12 00:08:43;;;;;;;1.95;1.75;;;16.30;57.30;16.20;100926.00;;;;4967432;28;98129;-68
2023/06/12 00:11:12;;;;;;;4.18;2.35;;;16.20;57.20;16.20;100928.00;;;;4970668;28;93981;-68
2023/06/12 00:13:43;;;;;;;3.78;2.42;;;16.20;57.40;16.10;100929.00;;;;4966801;28;93486;-68
2023/06/12 00:16:10;;;;;;;3.30;1.88;;;16.10;57.50;16.10;100927.00;;;;4966432;28;93235;-68
2023/06/12 00:18:38;;;;;;;2.83;2.30;;;16.10;57.60;16.00;100928.00;;;;4966422;28;92158;-68
2023/06/12 00:21:05;;;;;;;1.92;1.83;;;16.00;57.60;16.00;100930.00;;;;4969717;28;93800;-68
2023/06/12 00:23:31;;;;;;;1.38;1.27;;;16.00;57.60;15.90;100935.00;;;;4957692;28;93266;-67
2023/06/12 00:25:57;;;;;;;5.55;2.25;;;15.90;57.60;15.90;100923.00;;;;4965577;28;111236;-67
2023/06/12 00:28:22;;;;;;;5.10;2.08;;;15.90;57.60;15.80;100919.00;;;;4968689;28;108783;-69
2023/06/12 00:30:48;;;;;;;2.42;1.58;;;15.80;57.60;15.80;100926.00;;;;4967439;28;123536;-67
2023/06/12 00:33:16;;;;;;;3.80;2.00;;;15.70;57.50;15.80;100921.00;;;;4967571;28;121558;-68
2023/06/12 00:35:42;;;;;;;2.65;1.95;;;15.70;57.50;15.70;100918.00;;;;4968388;28;93090;-68
2023/06/12 00:38:07;;;;;;;2.33;1.58;;;15.70;57.50;15.70;100920.00;;;;4968165;28;102007;-68
2023/06/12 00:40:33;;;;;;;2.50;2.05;;;15.70;57.60;15.70;100909.00;;;;4969502;28;108158;-70
2023/06/12 00:42:59;;;;;;;2.03;1.83;;;15.70;57.60;15.70;100910.00;;;;4966269;28;122197;-68
2023/06/12 00:45:26;;;;;;;1.42;1.33;;;15.60;57.60;15.70;100913.00;;;;4964058;28;110443;-69
2023/06/12 00:47:54;;;;;;;2.53;2.13;;;15.60;57.70;15.70;100924.00;;;;4969335;28;93216;-68
2023/06/12 00:50:25;;;;;;;1.92;1.45;;;15.60;57.70;15.70;100912.00;;;;4969152;28;115902;-69
2023/06/12 00:52:53;;;;;;;2.78;1.63;;;15.60;57.70;15.60;100923.00;;;;4967039;28;94269;-69
2023/06/12 00:55:19;;;;;;;3.38;2.42;;;15.60;57.70;15.60;100923.00;;;;4949870;28;93172;-69
2023/06/12 00:57:46;;;;;;;3.13;2.40;;;15.50;57.70;15.50;100913.00;;;;4967288;28;92757;-69
2023/06/12 01:00:14;;;;;;;2.13;1.52;;;15.50;57.80;15.50;100919.00;;;;4966558;28;93714;-69
2023/06/12 01:02:44;;;;;;;3.33;1.98;;;15.50;57.90;15.50;100918.00;;;;4966308;28;93458;-69
2023/06/12 01:05:14;;;;;;;2.70;2.33;;;15.40;57.90;15.40;100917.00;;;;4969307;28;92819;-69
2023/06/12 01:08:27;;;;;;;3.13;1.42;;;15.40;58.10;15.30;100923.00;;;;4947386;28;92593;-69
2023/06/12 01:10:57;;;;;;;2.20;1.98;;;15.40;58.20;15.30;100926.00;;;;4952142;28;92882;-69
2023/06/12 01:13:23;;;;;;;4.45;1.90;;;15.30;58.30;15.30;100927.00;;;;4959784;28;94606;-69
2023/06/12 01:15:49;;;;;;;3.80;2.50;;;15.20;58.40;15.20;100925.00;;;;4950570;28;110389;-69
2023/06/12 01:18:16;;;;;;;3.72;1.75;;;15.20;58.50;15.20;100922.00;;;;4969087;28;92656;-69
2023/06/12 01:20:43;;;;;;;2.63;1.80;;;15.10;58.60;15.10;100925.00;;;;4966418;28;92964;-69
2023/06/12 01:23:09;;;;;;;1.48;1.38;;;15.10;59.30;15.10;100913.00;;;;4965782;28;93748;-68
2023/06/12 01:25:35;;;;;;;2.33;1.73;;;15.10;58.80;15.00;100915.00;;;;4950625;28;103173;-69
2023/06/12 01:28:17;;;;;;;1.98;1.88;;;15.00;58.80;15.00;100918.00;;;;4966413;28;93054;-69
2023/06/12 01:30:57;;;;;;;3.33;1.95;;;15.20;59.00;15.00;100913.00;;;;4962105;28;114813;-69
2023/06/12 01:33:32;;;;;;;2.90;2.05;;;14.90;59.00;14.90;100910.00;;;;4949871;28;113057;-69
2023/06/12 01:36:00;;;;;;;3.13;2.42;;;14.90;59.10;14.90;100910.00;;;;4964011;28;93080;-69
2023/06/12 01:38:30;;;;;;;3.80;2.60;;;14.90;59.20;14.80;100907.00;;;;4951241;28;93063;-69
2023/06/12 01:40:58;;;;;;;3.00;2.28;;;14.80;59.30;14.80;100898.00;;;;4967147;28;94049;-68
2023/06/12 01:43:24;;;;;;;2.25;2.05;;;14.70;59.50;14.70;100898.00;;;;4946131;28;94467;-68
2023/06/12 01:45:50;;;;;;;2.42;2.22;;;14.70;59.70;14.60;100905.00;;;;4964193;28;111488;-68
2023/06/12 01:48:16;;;;;;;3.03;2.65;;;14.60;59.90;14.50;100902.00;;;;4967313;28;109082;-68
2023/06/12 01:50:43;;;;;;;2.43;1.83;;;14.50;60.30;14.40;100902.00;;;;4966085;28;93123;-68
2023/06/12 01:53:10;;;;;;;1.75;1.60;;;14.40;60.70;14.30;100907.00;;;;4965537;28;114923;-68
2023/06/12 01:55:37;;;;;;;1.83;1.58;;;14.40;61.00;14.20;100904.00;;;;4967156;28;94281;-69
2023/06/12 01:58:03;;;;;;;3.67;2.10;;;14.30;61.40;14.20;100894.00;;;;4949400;28;91963;-68
2023/06/12 02:00:28;;;;;;;2.60;2.05;;;14.20;61.90;14.10;100896.00;;;;4966568;28;121886;-69
2023/06/12 02:02:56;;;;;;;1.90;1.80;;;14.10;62.40;14.00;100890.00;;;;4964955;28;120670;-69
2023/06/12 02:05:22;;;;;;;1.73;1.60;;;14.10;62.90;14.00;100902.00;;;;4964765;28;93988;-69
2023/06/12 02:07:48;;;;;;;1.75;1.50;;;14.00;63.20;13.90;100903.00;;;;4965543;28;96330;-70
2023/06/12 02:10:15;;;;;;;5.17;1.93;;;13.90;63.40;13.80;100897.00;;;;4961250;28;92963;-69
2023/06/12 02:12:41;;;;;;;1.80;1.10;;;13.80;63.80;13.70;100898.00;;;;4922673;28;94071;-69
2023/06/12 02:15:07;;;;;;;3.70;2.67;;;13.80;64.30;13.70;100899.00;;;;4963861;28;92895;-69
2023/06/12 02:17:33;;;;;;;3.17;2.33;;;13.70;64.70;13.60;100900.00;;;;4967745;28;100220;-69
2023/06/12 02:20:00;;;;;;;3.50;1.73;;;13.60;64.90;13.60;100895.00;;;;4962996;28;93774;-69
2023/06/12 02:22:25;;;;;;;4.33;2.13;;;13.60;65.10;13.50;100899.00;;;;4963040;28;121084;-69
2023/06/12 02:24:51;;;;;;;3.73;2.17;;;13.50;65.20;13.50;100897.00;;;;4966246;28;110434;-69
2023/06/12 02:27:23;;;;;;;2.37;1.90;;;13.50;65.40;13.40;100894.00;;;;4968657;28;93017;-68
2023/06/12 02:29:49;;;;;;;2.73;2.53;;;13.40;66.00;13.40;100893.00;;;;4962845;28;103128;-68
2023/06/12 02:32:15;;;;;;;2.90;1.70;;;13.40;66.20;13.30;100895.00;;;;4962327;28;123497;-68
2023/06/12 02:34:41;;;;;;;3.73;1.80;;;13.30;66.50;13.20;100889.00;;;;4963791;27;92954;-68
2023/06/12 02:37:14;;;;;;;4.07;2.17;;;13.30;66.90;13.20;100897.00;;;;4946340;28;93173;-68
2023/06/12 02:39:39;;;;;;;3.03;1.87;;;13.20;67.10;13.10;100903.00;;;;4965488;28;93890;-69
2023/06/12 02:42:05;;;;;;;3.13;1.97;;;13.10;67.30;13.10;100900.00;;;;4961868;28;122975;-68
2023/06/12 02:44:31;;;;;;;3.53;2.10;;;13.10;67.60;13.00;100907.00;;;;4965930;28;95209;-68
2023/06/12 02:47:00;;;;;;;3.73;2.33;;;13.00;67.80;13.00;100896.00;;;;4962518;28;109142;-68
2023/06/12 02:49:28;;;;;;;2.00;1.83;;;13.00;68.10;12.90;100901.00;;;;4964593;28;107993;-69
2023/06/12 02:51:55;;;;;;;3.13;1.70;;;12.90;68.60;12.80;100898.00;;;;4966679;28;93138;-69
2023/06/12 02:54:24;;;;;;;3.87;2.30;;;12.90;68.90;12.70;100902.00;;;;4960366;28;93713;-69
2023/06/12 02:56:50;;;;;;;2.53;1.97;;;12.80;69.30;12.60;100910.00;;;;4947512;28;93046;-69
2023/06/12 02:59:19;;;;;;;1.70;1.60;;;12.70;69.40;12.60;100902.00;;;;4966004;28;94305;-69
2023/06/12 03:01:45;;;;;;;3.13;2.03;;;12.60;69.60;12.60;100911.00;;;;4969347;28;92747;-69
2023/06/12 03:04:12;;;;;;;4.27;1.80;;;12.60;69.80;12.50;100908.00;;;;4969943;28;94511;-69
2023/06/12 03:06:39;;;;;;;4.17;2.80;;;12.50;70.10;12.50;100919.00;;;;4968718;28;92987;-69
2023/06/12 03:09:08;;;;;;;4.33;2.03;;;12.50;70.30;12.50;100921.00;;;;4969557;28;94241;-69
2023/06/12 03:11:35;;;;;;;2.97;2.17;;;12.50;70.70;12.50;100919.00;;;;4967757;28;93829;-69
2023/06/12 03:14:02;;;;;;;5.90;2.90;;;12.50;71.00;12.40;100916.00;;;;4956029;28;92972;-69
2023/06/12 03:16:28;;;;;;;3.03;1.90;;;12.60;71.20;12.40;100924.00;;;;4963611;28;100052;-70
2023/06/12 03:18:53;;;;;;;3.23;1.97;;;12.40;71.30;12.30;100924.00;;;;4966168;28;121272;-69
2023/06/12 03:21:19;;;;;;;2.67;1.90;;;12.40;71.60;12.30;100927.00;;;;4960346;28;106542;-69
2023/06/12 03:23:45;;;;;;;2.83;2.23;;;12.40;71.80;12.20;100917.00;;;;4972372;28;93372;-69
2023/06/12 03:26:11;;;;;;;2.63;2.07;;;12.30;72.10;12.20;100916.00;;;;4967296;28;108205;-69
2023/06/12 03:28:37;;;;;;;2.83;1.80;;;12.20;72.30;12.20;100915.00;;;;4967087;28;93144;-69
2023/06/12 03:31:02;;;;;;;5.67;2.47;;;12.20;72.50;12.20;100921.00;;;;4967728;28;121438;-69
2023/06/12 03:33:28;;;;;;;2.40;1.93;;;12.00;72.70;12.20;100915.00;;;;4966169;28;92889;-69
2023/06/12 03:35:54;;;;;;;2.60;2.20;;;12.20;73.00;12.20;100911.00;;;;4953647;28;108481;-69
2023/06/12 03:38:20;;;;;;;3.73;2.50;;;12.20;73.10;12.20;100916.00;;;;4972132;28;94062;-69
2023/06/12 03:40:46;;;;;;;2.17;1.97;;;12.20;73.20;12.20;100927.00;;;;4961535;28;122109;-69
2023/06/12 03:43:11;;;;;;;1.97;1.70;;;12.20;73.60;12.30;100918.00;;;;4967688;28;93896;-69
2023/06/12 03:45:37;;;;;;;4.23;2.00;;;12.30;73.70;12.40;100925.00;;;;4967267;28;108010;-69
2023/06/12 03:48:03;;;;;;;3.03;1.97;;;12.30;73.70;12.40;100919.00;;;;4966294;28;120659;-69
2023/06/12 03:50:29;;;;;;;4.57;2.00;;;12.40;73.80;12.50;100927.00;;;;4950102;28;93164;-68
2023/06/12 03:52:55;;;;;;;2.60;1.73;;;12.40;73.80;12.60;100926.00;;;;4968302;28;92823;-69
2023/06/12 03:55:21;;;;;;;3.20;1.93;;;12.50;74.10;12.70;100933.00;;;;4947101;28;93169;-68
2023/06/12 03:57:47;;;;;;;3.43;1.90;;;12.60;74.20;12.80;100923.00;;;;4966924;28;93289;-68
2023/06/12 04:00:13;;;;;;;3.67;1.37;;;12.70;74.20;12.90;100925.00;;;;4968252;28;96116;-68
2023/06/12 04:02:39;;;;;;;3.03;1.37;;;12.80;74.10;13.00;100925.00;;;;4969168;28;92910;-67
2023/06/12 04:05:08;;;;;;;2.93;1.47;;;12.90;74.00;13.10;100927.00;;;;4972610;28;92822;-67
2023/06/12 04:07:37;;;;;;;1.70;1.60;;;13.00;73.70;13.20;100929.00;;;;4965170;28;94388;-67
2023/06/12 04:10:05;;;;;;;3.73;1.67;;;13.10;73.30;13.40;100926.00;;;;4963819;28;94572;-69
2023/06/12 04:12:34;;;;;;;2.90;1.80;;;13.30;72.90;13.50;100931.00;;;;4964256;28;100990;-68
2023/06/12 04:15:01;;;;;;;3.37;1.60;;;13.40;72.50;13.60;100921.00;;;;4949425;28;93005;-67
2023/06/12 04:17:26;;;;;;;1.67;1.50;;;13.50;72.30;13.70;100929.00;;;;4969963;28;93365;-69
2023/06/12 04:19:52;;;;;;;1.80;1.70;;;13.60;72.00;13.90;100937.00;;;;4946409;28;120989;-68
2023/06/12 04:22:19;;;;;;;3.47;1.93;;;13.80;71.60;14.00;100937.00;;;;4971446;28;93069;-67
2023/06/12 04:24:45;;;;;;;2.83;1.70;;;13.90;71.10;14.10;100940.00;;;;4967645;28;92292;-68
2023/06/12 04:27:10;;;;;;;3.23;1.93;;;14.00;70.90;14.20;100940.00;;;;4968685;28;92765;-69
2023/06/12 04:29:42;;;;;;;2.77;1.73;;;14.10;70.30;14.30;100940.00;;;;4965757;28;92954;-69
2023/06/12 04:32:09;;;;;;;4.43;2.00;;;14.20;69.90;14.50;100931.00;;;;4948996;28;93986;-68
2023/06/12 04:34:43;;;;;;;2.53;2.07;;;14.40;69.40;14.60;100940.00;;;;4965683;28;92951;-66
2023/06/12 04:37:11;;;;;;;3.88;2.03;;;14.50;68.90;14.70;100941.00;;;;4965860;28;93938;-68
2023/06/12 04:39:43;;;;;;;2.50;1.83;;;14.60;67.90;14.90;100937.00;;;;4965259;28;93595;-66
2023/06/12 04:42:10;;;;;;;1.65;1.55;;;14.70;67.00;15.00;100950.00;;;;4963700;28;92929;-68
2023/06/12 04:44:37;;;;;;;2.30;1.50;;;14.80;66.10;15.10;100941.00;;;;4963380;28;92785;-67
2023/06/12 04:47:14;;;;;;;1.83;1.20;;;15.00;65.80;15.30;100952.00;;;;4968565;28;93895;-68
2023/06/12 04:49:43;;;;;;;2.53;1.77;;;15.10;65.30;15.40;100958.00;;;;4964916;28;92326;-68
2023/06/12 04:52:09;;;;;;;2.45;1.67;;;15.30;65.10;15.60;100948.00;;;;4962626;28;92976;-67
2023/06/12 04:54:41;;;;;;;1.95;1.33;;;15.40;64.20;15.70;100954.00;;;;4963660;28;92998;-68
2023/06/12 04:57:23;;;;;;;2.10;1.90;;;15.50;63.30;15.90;100956.00;;;;4958307;28;94852;-67
2023/06/12 04:59:49;;;;;;;1.58;1.45;;;15.70;62.90;16.00;100963.00;;;;4954333;28;93259;-66
2023/06/12 05:02:14;;;;;;;5.63;1.90;;;15.90;62.50;16.20;100956.00;;;;4963788;28;110745;-69
2023/06/12 05:04:41;;;;;;;4.70;1.80;;;16.00;61.70;16.30;100949.00;;;;4964976;28;93126;-67
2023/06/12 05:07:16;;;;;;;3.95;1.80;;;16.10;61.40;16.50;100956.00;;;;4961672;28;94005;-66
2023/06/12 05:09:45;;;;;;;1.27;1.17;;;16.30;61.00;16.60;100952.00;;;;4963370;28;92858;-65
2023/06/12 05:12:12;;;;;;;3.00;1.77;;;16.40;60.70;16.80;100955.00;;;;4961322;28;109495;-68
2023/06/12 05:14:40;;;;;;;2.45;1.65;;;16.60;60.50;16.90;100951.00;;;;4963552;28;92266;-68
2023/06/12 05:17:06;;;;;;;2.60;2.20;;;16.70;60.40;17.10;100954.00;;;;4966830;28;94765;-66
2023/06/12 05:19:32;;;;;;;2.35;1.25;;;16.90;60.20;17.30;100962.00;;;;4963686;28;94672;-68
2023/06/12 05:21:57;;;;;;;2.17;1.40;;;17.10;59.60;17.50;100960.00;;;;4964400;28;110428;-66
2023/06/12 05:24:23;;;;;;;2.95;1.48;;;17.30;59.30;17.70;100958.00;;;;4966843;28;107072;-66
2023/06/12 05:26:50;;;;;;;1.67;1.58;;;17.50;58.30;17.80;100968.00;;;;4964914;28;121872;-66
2023/06/12 05:29:26;;;;;;;4.75;1.98;;;17.60;58.10;18.00;100962.00;;;;4965804;28;93249;-66
2023/06/12 05:31:52;;;;;;;4.20;1.77;;;17.80;57.70;18.10;100968.00;;;;4967187;28;92866;-67
2023/06/12 05:34:18;;;;;;;3.17;1.58;;;17.90;56.50;18.20;100960.00;;;;4962469;28;98051;-68
2023/06/12 05:36:44;;;;;;;1.50;1.35;;;18.00;56.20;18.40;100965.00;;;;4965497;28;121599;-66
2023/06/12 05:39:09;;;;;;;1.65;1.33;;;18.20;56.40;18.50;100969.00;;;;4968815;28;93041;-66
2023/06/12 05:41:35;;;;;;;2.67;1.67;;;18.30;55.40;18.60;100971.00;;;;4967107;28;110642;-66
2023/06/12 05:44:03;;;;;;;4.88;1.98;;;18.40;55.50;18.70;100962.00;;;;4968753;28;93490;-67
2023/06/12 05:46:29;;;;;;;2.28;1.23;;;18.50;55.30;18.90;100970.00;;;;4966690;28;94308;-68
2023/06/12 05:48:57;;;;;;;1.50;1.40;;;18.60;55.40;19.10;100966.00;;;;4967626;28;98271;-68
2023/06/12 05:51:24;;;;;;;1.50;1.40;;;18.80;55.30;19.30;100971.00;;;;4966345;28;93008;-68
2023/06/12 05:53:50;;;;;;;1.35;1.25;;;19.00;55.00;19.50;100967.00;;;;4963643;28;92983;-67
2023/06/12 05:56:16;;;;;;;1.30;1.20;;;19.20;55.00;19.70;100972.00;;;;4965517;28;93710;-67
2023/06/12 05:58:44;;;;;;;4.35;1.52;;;19.40;54.70;19.90;100981.00;;;;4966472;28;122358;-67
2023/06/12 06:01:16;;;;;;;3.35;1.27;;;19.60;53.80;20.00;100976.00;;;;4964351;28;92818;-67
2023/06/12 06:03:45;;;;;;;3.08;1.40;;;19.80;53.60;20.20;100973.00;;;;4965275;28;92588;-67
2023/06/12 06:06:12;;;;;;;1.73;1.55;;;20.00;53.60;20.50;100977.00;;;;4966366;28;93757;-67
2023/06/12 06:08:38;;;;;;;1.63;1.20;;;20.20;53.30;20.70;100974.00;;;;4970308;28;93963;-69
2023/06/12 06:11:04;;;;;;;1.65;1.00;;;20.50;52.70;20.90;100974.00;;;;4950442;28;110922;-68
2023/06/12 06:13:31;;;;;;;2.42;1.33;;;20.60;52.30;21.00;100979.00;;;;4969318;28;92891;-67
2023/06/12 06:15:57;;;;;;;2.40;1.27;;;20.80;51.70;21.20;100967.00;;;;4963774;28;93009;-67
2023/06/12 06:18:22;;;;;;;2.38;1.45;;;20.90;51.70;21.40;100972.00;;;;4963066;28;117442;-68
2023/06/12 06:20:48;;;;;;;1.35;1.25;;;21.10;51.60;21.60;100982.00;;;;4964839;28;103098;-67
2023/06/12 06:23:14;;;;;;;1.35;1.20;;;21.30;51.30;21.80;100988.00;;;;4966640;28;92993;-68
2023/06/12 06:25:40;;;;;;;1.55;1.27;;;21.50;51.10;22.00;100986.00;;;;4964467;28;93476;-68
2023/06/12 06:28:06;;;;;;;0.98;0.88;;;21.80;50.30;22.10;100993.00;;;;4965340;28;114966;-69
2023/06/12 06:30:32;;;;;;;1.80;1.67;;;21.90;49.80;22.30;100988.00;;;;4963969;28;109257;-68
2023/06/12 06:32:58;;;;;;;1.40;1.27;;;22.00;49.00;22.40;100986.00;;;;4965386;28;93251;-67
2023/06/12 06:35:24;;;;;;;1.60;1.30;;;22.20;48.60;22.50;100988.00;;;;4968033;28;94928;-70
2023/06/12 06:37:50;;;;;;;1.75;1.38;;;22.30;47.80;22.60;101002.00;;;;4965334;28;93188;-68
2023/06/12 06:40:16;;;;;;;1.60;1.50;;;22.40;47.80;22.70;100998.00;;;;4969409;28;93062;-67
2023/06/12 06:42:42;;;;;;;1.90;1.55;;;22.50;47.80;22.90;101008.00;;;;4970671;28;92996;-70
2023/06/12 06:45:08;;;;;;;1.73;1.42;;;22.60;47.80;23.00;101005.00;;;;4951815;28;93216;-68
2023/06/12 06:47:35;;;;;;;6.00;1.52;;;22.80;47.30;23.20;101005.00;;;;4967121;28;110469;-69
2023/06/12 06:50:01;;;;;;;1.63;1.38;;;23.00;47.60;23.50;101017.00;;;;4968001;28;93169;-67
2023/06/12 06:52:26;;;;;;;2.42;1.08;;;23.20;47.40;23.70;101013.00;;;;4968325;28;92118;-69
2023/06/12 06:54:52;;;;;;;1.17;1.08;;;23.40;46.40;23.80;101013.00;;;;4967553;28;122378;-68
2023/06/12 06:57:18;;;;;;;1.52;1.20;;;23.60;45.90;23.90;101002.00;;;;4965276;28;123380;-68
2023/06/12 06:59:44;;;;;;;2.55;1.40;;;23.70;46.10;24.10;101007.00;;;;4954069;28;93863;-70
2023/06/12 07:02:10;;;;;;;1.75;1.40;;;23.80;46.00;24.20;101018.00;;;;4967841;28;108796;-72
2023/06/12 07:04:36;;;;;;;2.22;1.42;;;24.00;46.00;24.40;101014.00;;;;4965229;28;121083;-70
2023/06/12 07:07:03;;;;;;;6.53;1.52;;;24.10;46.00;24.60;101015.00;;;;4966616;28;93430;-70
2023/06/12 07:09:29;;;;;;;2.67;1.90;;;24.40;45.50;24.80;101010.00;;;;4967078;28;93002;-68
2023/06/12 07:11:55;;;;;;;1.23;1.13;;;24.40;45.50;25.00;101021.00;;;;4968635;28;93069;-68
2023/06/12 07:14:21;;;;;;;1.55;1.30;;;24.60;45.20;25.10;101016.00;;;;4968073;28;123482;-69
2023/06/12 07:16:46;;;;;;;2.75;1.35;;;24.80;44.70;25.00;101015.00;;;;4956247;28;115228;-68
2023/06/12 07:19:12;;;;;;;3.47;1.15;;;24.80;44.60;25.00;101020.00;;;;4967904;28;111194;-69
2023/06/12 07:21:38;;;;;;;1.48;1.15;;;24.80;44.70;25.00;101022.00;;;;4966777;28;107787;-71
2023/06/12 07:24:05;;;;;;;1.58;1.23;;;24.80;44.50;25.00;101014.00;;;;4967527;28;124161;-72
2023/06/12 07:26:30;;;;;;;2.92;1.90;;;24.80;44.50;25.00;101015.00;;;;4952331;28;94008;-69
2023/06/12 07:28:57;;;;;;;1.67;1.58;;;24.80;44.60;25.00;101017.00;;;;4945635;28;100766;-69
2023/06/12 07:31:22;;;;;;;2.63;1.27;;;24.80;44.60;25.20;101011.00;;;;4965280;28;101688;-69
2023/06/12 07:33:48;;;;;;;3.53;1.50;;;24.90;44.90;25.40;101008.00;;;;4968411;28;122849;-70
2023/06/12 07:36:14;;;;;;;1.63;1.05;;;25.10;44.60;25.70;101011.00;;;;4966541;28;122445;-69
2023/06/12 07:38:41;;;;;;;1.50;1.20;;;25.30;44.60;25.90;101013.00;;;;4952418;28;93563;-70
2023/06/12 07:41:07;;;;;;;1.40;1.27;;;25.50;44.10;26.00;101010.00;;;;4968413;28;92195;-71
2023/06/12 07:43:34;;;;;;;2.08;1.45;;;25.70;43.70;26.10;101010.00;;;;4951987;28;110765;-70
2023/06/12 07:46:01;;;;;;;1.48;1.35;;;25.80;42.60;26.00;101007.00;;;;4965114;28;93951;-72
2023/06/12 07:48:27;;;;;;;2.20;1.45;;;25.80;41.70;25.90;101003.00;;;;4968107;28;94255;-69
2023/06/12 07:50:53;;;;;;;1.95;1.15;;;25.70;41.80;25.90;101007.00;;;;4969780;28;92964;-72
2023/06/12 07:53:19;;;;;;;2.47;1.83;;;25.60;42.20;26.00;101023.00;;;;4971590;28;115094;-70
2023/06/12 07:55:44;;;;;;;3.55;1.42;;;25.70;41.80;26.00;101020.00;;;;4967488;28;123654;-71
2023/06/12 07:58:10;;;;;;;1.58;1.20;;;25.80;41.50;25.90;101018.00;;;;4967031;28;110533;-71
2023/06/12 08:00:36;;;;;;;2.08;1.63;;;25.70;41.70;25.70;101020.00;;;;4968663;28;92945;-71
2023/06/12 08:03:03;;;;;;;1.75;1.27;;;25.60;42.10;25.70;101022.00;;;;4968598;28;106410;-70
2023/06/12 08:05:29;;;;;;;0.63;0.63;;;25.40;42.20;25.70;101028.00;;;;4968162;28;94081;-70
2023/06/12 08:07:55;;;;;;;1.30;1.02;;;25.40;41.70;25.70;101011.00;;;;4966871;28;92889;-71
2023/06/12 08:10:21;;;;;;;1.45;1.30;;;25.40;42.10;25.80;101018.00;;;;4964803;28;93009;-71
2023/06/12 08:12:47;;;;;;;1.63;1.38;;;25.40;42.60;26.00;101018.00;;;;4967462;28;96699;-70
2023/06/12 08:15:13;;;;;;;3.30;1.58;;;25.60;42.00;26.10;101014.00;;;;4967019;28;115303;-72
2023/06/12 08:17:42;;;;;;;3.63;1.00;;;25.70;40.80;26.00;101012.00;;;;4971040;28;92876;-72
2023/06/12 08:20:10;;;;;;;2.55;1.15;;;25.70;41.40;25.80;101008.00;;;;4966037;28;108793;-71
2023/06/12 08:22:36;;;;;;;1.95;1.42;;;25.60;41.50;25.70;101020.00;;;;4966274;28;93042;-70
2023/06/12 08:25:07;;;;;;;1.35;1.25;;;25.50;41.80;25.70;101016.00;;;;4968749;28;93899;-72
2023/06/12 08:27:33;;;;;;;3.50;1.27;;;25.40;41.90;25.50;101002.00;;;;4947834;28;92810;-72
2023/06/12 08:30:00;;;;;;;2.30;1.17;;;25.30;42.10;25.40;101014.00;;;;4971268;28;92364;-70
2023/06/12 08:32:26;;;;;;;1.15;0.93;;;25.20;41.90;25.30;101014.00;;;;4965613;28;93943;-71
2023/06/12 08:34:53;;;;;;;1.45;0.77;;;25.10;42.10;25.10;101024.00;;;;4965637;28;95021;-70
2023/06/12 08:37:20;;;;;;;2.45;1.40;;;24.90;41.40;24.90;101015.00;;;;4968083;28;94092;-70
2023/06/12 08:39:46;;;;;;;1.77;1.48;;;24.80;41.50;24.90;101013.00;;;;4953987;28;92866;-69
2023/06/12 08:42:16;;;;;;;2.47;1.40;;;24.60;42.40;24.90;101021.00;;;;4967347;28;117404;-73
2023/06/12 08:44:46;;;;;;;1.27;1.08;;;24.60;43.30;24.80;101004.00;;;;4966468;28;101843;-71
2023/06/12 08:47:13;;;;;;;1.83;0.95;;;24.50;43.20;24.90;101015.00;;;;4966276;28;93096;-72
2023/06/12 08:49:40;;;;;;;2.28;1.50;;;24.50;43.20;25.00;101008.00;;;;4968566;28;92842;-72
2023/06/12 08:52:06;;;;;;;1.58;1.42;;;24.60;39.30;25.00;101017.00;;;;4951004;28;93062;-70
2023/06/12 08:54:40;;;;;;;1.98;1.48;;;24.70;39.20;25.10;101013.00;;;;4953095;28;92259;-72
2023/06/12 08:57:08;;;;;;;1.65;1.20;;;24.80;39.60;25.00;101019.00;;;;4951088;28;92976;-72
2023/06/12 08:59:34;;;;;;;1.55;1.40;;;24.70;40.40;25.00;101014.00;;;;4967871;28;93056;-71
2023/06/12 09:02:01;;;;;;;1.48;1.25;;;24.70;41.00;24.90;101015.00;;;;4966587;28;94072;-72
2023/06/12 09:04:56;;;;;;;2.72;1.33;;;24.70;41.30;24.90;101010.00;;;;4961966;28;122946;-70
2023/06/12 09:07:25;;;;;;;0.98;0.90;;;24.60;41.90;25.00;101019.00;;;;4966041;28;93721;-72
2023/06/12 09:09:50;;;;;;;1.15;1.05;;;24.60;41.70;25.20;101013.00;;;;4954951;28;92971;-70
2023/06/12 09:12:16;;;;;;;3.00;1.60;;;24.80;41.10;25.20;101020.00;;;;4962741;28;123513;-72
2023/06/12 09:14:45;;;;;;;2.45;1.52;;;24.80;40.00;25.20;101018.00;;;;4964890;28;93694;-71
2023/06/12 09:17:11;;;;;;;1.88;1.60;;;24.90;40.50;25.00;101015.00;;;;4969547;28;93072;-70
2023/06/12 09:19:42;;;;;;;1.42;1.23;;;24.70;40.90;25.00;101009.00;;;;4964867;28;109502;-71
2023/06/12 09:22:07;;;;;;;2.17;1.05;;;24.70;41.60;25.30;101013.00;;;;4967120;28;93157;-71
2023/06/12 09:24:33;;;;;;;1.45;1.13;;;24.90;41.10;25.30;101001.00;;;;4961729;28;115111;-73
2023/06/12 09:27:00;;;;;;;2.20;1.10;;;25.00;39.70;25.40;100990.00;;;;4965344;28;93722;-70
2023/06/12 09:29:35;;;;;;;2.15;1.67;;;25.00;40.10;25.60;101000.00;;;;4969227;28;93100;-70
2023/06/12 09:32:10;;;;;;;1.50;1.15;;;25.20;39.60;25.90;100998.00;;;;4951168;28;95279;-70
2023/06/12 09:34:36;;;;;;;1.33;0.80;;;25.40;39.30;26.10;101000.00;;;;4947045;28;93236;-70
2023/06/12 09:37:08;;;;;;;1.35;1.10;;;25.60;39.00;26.20;101000.00;;;;4968360;28;92801;-70
2023/06/12 09:39:35;;;;;;;1.23;1.13;;;25.80;38.00;26.30;101001.00;;;;4967582;28;93104;-72
2023/06/12 09:42:02;;;;;;;3.80;1.10;;;25.90;38.40;26.40;100992.00;;;;4965886;28;123604;-71
2023/06/12 09:44:30;;;;;;;1.92;1.40;;;25.90;38.30;26.70;101006.00;;;;4968360;28;95566;-72
2023/06/12 09:47:01;;;;;;;2.88;1.52;;;26.20;38.00;27.00;101004.00;;;;4966386;28;92780;-72
2023/06/12 09:49:27;;;;;;;1.95;1.17;;;26.50;36.90;27.10;101004.00;;;;4954632;28;94392;-72
2023/06/12 09:51:54;;;;;;;1.30;1.20;;;26.70;35.70;27.20;101004.00;;;;4948636;28;123976;-71
2023/06/12 09:54:22;;;;;;;1.08;0.98;;;26.70;36.30;27.50;100997.00;;;;4970715;28;94433;-73
2023/06/12 09:56:52;;;;;;;2.03;1.55;;;27.00;36.40;27.80;101000.00;;;;4964872;28;92758;-72
2023/06/12 09:59:21;;;;;;;1.45;1.08;;;27.20;36.70;27.80;100997.00;;;;4965698;28;94006;-73
2023/06/12 10:01:53;;;;;;;1.25;0.98;;;27.40;35.00;27.70;100999.00;;;;4965265;28;93613;-71
2023/06/12 10:04:39;;;;;;;1.88;1.00;;;27.30;34.80;27.70;101000.00;;;;4964923;28;93867;-73
2023/06/12 10:07:23;;;;;;;1.92;1.13;;;27.30;35.80;27.80;100995.00;;;;4949664;28;92923;-70
2023/06/12 10:09:50;;;;;;;2.72;1.38;;;27.30;35.50;27.90;100996.00;;;;4941579;28;92374;-71
2023/06/12 10:12:17;;;;;;;1.55;1.40;;;27.50;35.80;28.00;100990.00;;;;4952695;28;93391;-71
2023/06/12 10:14:43;;;;;;;1.58;1.30;;;27.50;36.50;27.80;101002.00;;;;4961712;28;121722;-72
2023/06/12 10:17:10;;;;;;;1.58;1.00;;;27.40;37.40;27.60;100994.00;;;;4949881;28;110183;-71
2023/06/12 10:19:47;;;;;;;2.20;1.20;;;27.30;37.90;27.50;100999.00;;;;4967469;28;109007;-69
2023/06/12 10:22:13;;;;;;;1.48;0.82;;;27.10;38.50;27.60;101006.00;;;;4967205;28;93453;-72
2023/06/12 10:24:39;;;;;;;2.17;1.08;;;27.20;38.50;27.70;100998.00;;;;4949702;28;95783;-72
2023/06/12 10:27:06;;;;;;;1.58;1.17;;;27.20;37.90;27.70;101006.00;;;;4970652;28;92726;-72
2023/06/12 10:29:36;;;;;;;3.72;1.92;;;27.20;37.70;27.40;100996.00;;;;4948052;28;93070;-72
2023/06/12 10:32:10;;;;;;;2.33;1.10;;;27.10;36.60;27.30;100990.00;;;;4957022;28;93015;-70
2023/06/12 10:34:41;;;;;;;1.35;1.20;;;27.00;36.60;27.40;100988.00;;;;4960535;28;93149;-71
2023/06/12 10:37:31;;;;;;;1.88;1.20;;;26.90;37.00;27.30;100984.00;;;;4965893;28;92787;-71
2023/06/12 10:40:20;;;;;;;1.42;1.30;;;26.90;37.70;27.30;100987.00;;;;4959505;28;93328;-70
2023/06/12 10:42:54;;;;;;;1.45;1.35;;;26.90;37.80;27.20;100986.00;;;;4966763;28;94024;-72
2023/06/12 10:45:22;;;;;;;1.88;0.88;;;26.80;37.80;27.20;100984.00;;;;4967783;28;121279;-72
2023/06/12 10:48:03;;;;;;;1.80;1.10;;;26.80;38.20;27.30;100982.00;;;;4965891;28;93127;-71